Hauptseite
METAR-TAF:

METAR-TAF

Flughäfen :

Flugplatz St. Gallen-Altenrhein

St. Gallen, Schweiz

Breite: 47-29-06N, Länge: 009-33-43E, Höhe: 398 m

Beobachtung

Neuester Wetterbericht von vor 21 Minuten, um 13:50 UTC
Wind 3 kt aus unterschiedlichen Richtungen
Temperatur 0°C
Luftfeuchtigkeit 100%
Luftdruck 1023 hPa
Sichtweite: 3500 m
Geschlossene Wolkendecke in der Höhe von 300 ft
feuchter Dunst

METAR: LSZR 241350Z VRB03KT 3500 BR OVC003 00/M00 Q1023 NOSIG RMK L

Zeit: 15:11 (14:11 UTC)

Prognose

Neuester Wetterbericht von vor 35 Minuten, um 13:36 UTC
Gültige Prognose vom 24 um 13 UTC bis 24 um 21 UTC
Wind 3 kt aus unterschiedlichen Richtungen
Sichtweite: 3500 m
Durchbrochene Bewölkung in der Höhe von 500 ft
feuchter Dunst
Wahrscheinlichkeit 40%
vom 24 um 13 UTC bis 24 um 21 UTC
Sichtweite: 6000 m
Leicht bewölkt in der Höhe von 800 ft

TAF: LSZR 241336Z 2413/2421 VRB03KT 3500 BR BKN005 PROB40 2413/2421 6000 NSW FEW008

Wetterbeobachtungen und Prognosen von mehr als 4000 Flughäfen (METAR und TAF Bericht).

Die verfügbaren Stationen werden durch gelbe und rote Markierungen auf der Karte dargestellt.

Führen Sie die Maus auf sie, um den Namen der Station zu sehen.

Darauf klicken, um die Beobachtung von Wetterbeobachtungen und Prognosen zu sehen.

Um die Karte zu ändern : klicken Sie auf den grünen Tasten mit einem schwarzen Kreuz Zum Vergrößern, auf den grünen Button mit einem Gedankenstrich zu verkleinern, oder auf die grünen Pfeile für benachbarte Karten.


METAR-TAF: